Time;durP1;ratioP1;P1;durP2;ratioP2;P2;SDS_P1;SDS_P2;PMS_P1;PMS_P2;Temp;Humidity;BMP_temperature;BMP_pressure;BME280_temperature;BME280_humidity;BME280_pressure;Samples;Min_cycle;Max_cycle;Signal;HPM_P1;HPM_P2
2022/01/18 00:00:45;;;;;;;;;;;;;;;;;;2090352;28;970;-76
2022/01/18 00:01:48;;;;;;;;;;;;;;;;;;2099123;28;1141;-78
2022/01/18 00:02:49;;;;;;;;;;;;;;;;;;2090176;28;1492;-78
2022/01/18 00:03:50;;;;;;;;;;;;;;;;;;2090138;28;940;-78
2022/01/18 00:04:51;;;;;;;;;;;;;;;;;;2090265;28;950;-78
2022/01/18 00:05:53;;;;;;;;;;;;;;;;;;2090147;28;1042;-78
2022/01/18 00:06:55;;;;;;;;;;;;;;;;;;2090340;28;992;-78
2022/01/18 00:07:57;;;;;;;;;;;;;;;;;;2098933;28;955;-78
2022/01/18 00:08:59;;;;;;;;;;;;;;;;;;2099015;28;1913;-78
2022/01/18 00:09:59;;;;;;;;;;;;;;;;;;2099129;28;1064;-78
2022/01/18 00:11:01;;;;;;;;;;;;;;;;;;2099071;28;1065;-78
2022/01/18 00:12:25;;;;;;;;;;;;;;;;;;2099015;28;951;-78
2022/01/18 00:13:39;;;;;;;;;;;;;;;;;;2099080;28;1394;-78
2022/01/18 00:14:42;;;;;;;;;;;;;;;;;;2099215;28;1128;-78
2022/01/18 00:15:55;;;;;;;;;;;;;;;;;;2099239;28;974;-78
2022/01/18 00:17:04;;;;;;;;;;;;;;;;;;2099075;28;935;-78
2022/01/18 00:18:09;;;;;;;;;;;;;;;;;;2099146;28;941;-78
2022/01/18 00:19:12;;;;;;;;;;;;;;;;;;2098893;28;1015;-78
2022/01/18 00:20:19;;;;;;;;;;;;;;;;;;2099037;28;942;-78
2022/01/18 00:21:30;;;;;;;;;;;;;;;;;;2099186;28;1115;-78
2022/01/18 00:22:32;;;;;;;;;;;;;;;;;;2098999;28;1063;-78
2022/01/18 00:23:34;;;;;;;;;;;;;;;;;;2099013;28;1035;-78
2022/01/18 00:24:35;;;;;;;;;;;;;;;;;;2098954;28;899;-78
2022/01/18 00:25:38;;;;;;;;;;;;;;;;;;2099183;28;932;-78
2022/01/18 00:26:40;;;;;;;;;;;;;;;;;;2098976;28;949;-78
2022/01/18 00:27:41;;;;;;;;;;;;;;;;;;2099011;28;954;-78
2022/01/18 00:28:49;;;;;;;;;;;;;;;;;;2099012;28;1053;-77
2022/01/18 00:30:01;;;;;;;;;;;;;;;;;;2098925;28;1898;-78
2022/01/18 00:32:33;;;;;;;;;;;;;;;;;;2085498;28;1147;-78
2022/01/18 00:33:46;;;;;;;;;;;;;;;;;;2095441;28;1393;-77
2022/01/18 00:34:52;;;;;;;;;;;;;;;;;;2100079;28;1186;-77
2022/01/18 00:36:00;;;;;;;;;;;;;;;;;;2098814;28;1365;-78
2022/01/18 00:37:24;;;;;;;;;;;;;;;;;;2106894;28;938;-77
2022/01/18 00:38:30;;;;;;;;;;;;;;;;;;2107403;28;947;-78
2022/01/18 00:39:32;;;;;;;;;;;;;;;;;;2107289;28;926;-78
2022/01/18 00:40:32;;;;;;;;;;;;;;;;;;2107289;28;954;-78
2022/01/18 00:41:34;;;;;;;;;;;;;;;;;;2107307;28;1023;-78
2022/01/18 00:42:36;;;;;;;;;;;;;;;;;;2107383;28;924;-78
2022/01/18 00:43:37;;;;;;;;;;;;;;;;;;2107344;28;1056;-78
2022/01/18 00:44:38;;;;;;;;;;;;;;;;;;2107311;28;1001;-78
2022/01/18 00:45:39;;;;;;;;;;;;;;;;;;2107179;28;1283;-78
2022/01/18 00:46:40;;;;;;;;;;;;;;;;;;2107335;28;1190;-78
2022/01/18 00:47:42;;;;;;;;;;;;;;;;;;2107400;28;1205;-78
2022/01/18 00:48:44;;;;;;;;;;;;;;;;;;2107242;28;1048;-78
2022/01/18 00:49:47;;;;;;;;;;;;;;;;;;2108530;28;1963;-78
2022/01/18 00:50:49;;;;;;;;;;;;;;;;;;2108968;28;942;-78
2022/01/18 00:51:55;;;;;;;;;;;;;;;;;;2108825;28;948;-78
2022/01/18 00:52:56;;;;;;;;;;;;;;;;;;2108946;28;1026;-78
2022/01/18 00:53:59;;;;;;;;;;;;;;;;;;2108874;28;958;-78
2022/01/18 00:55:01;;;;;;;;;;;;;;;;;;2108893;28;931;-78
2022/01/18 00:56:15;;;;;;;;;;;;;;;;;;2108770;28;955;-78
2022/01/18 00:57:17;;;;;;;;;;;;;;;;;;2108851;28;1072;-78
2022/01/18 00:58:18;;;;;;;;;;;;;;;;;;2108595;28;976;-78
2022/01/18 00:59:20;;;;;;;;;;;;;;;;;;2108787;28;954;-78
2022/01/18 01:00:21;;;;;;;;;;;;;;;;;;2108708;28;951;-78
2022/01/18 01:01:23;;;;;;;;;;;;;;;;;;2108828;28;1129;-78
2022/01/18 01:02:24;;;;;;;;;;;;;;;;;;2108713;28;1233;-78
2022/01/18 01:03:26;;;;;;;;;;;;;;;;;;2108761;28;1116;-78
2022/01/18 01:04:32;;;;;;;;;;;;;;;;;;2108786;28;994;-78
2022/01/18 01:05:34;;;;;;;;;;;;;;;;;;2108707;28;1171;-78
2022/01/18 01:06:35;;;;;;;;;;;;;;;;;;2108828;28;924;-78
2022/01/18 01:07:40;;;;;;;;;;;;;;;;;;2108899;28;968;-78
2022/01/18 01:08:40;;;;;;;;;;;;;;;;;;2108644;28;931;-78
2022/01/18 01:09:42;;;;;;;;;;;;;;;;;;2108726;28;1906;-78
2022/01/18 01:10:43;;;;;;;;;;;;;;;;;;2108530;28;934;-78
2022/01/18 01:11:44;;;;;;;;;;;;;;;;;;2108726;28;964;-77
2022/01/18 01:12:45;;;;;;;;;;;;;;;;;;2108608;28;955;-77
2022/01/18 01:13:48;;;;;;;;;;;;;;;;;;2108790;28;1046;-78
2022/01/18 01:14:51;;;;;;;;;;;;;;;;;;2108652;28;920;-78
2022/01/18 01:16:04;;;;;;;;;;;;;;;;;;2108767;28;1078;-78
2022/01/18 01:17:22;;;;;;;;;;;;;;;;;;2108612;28;1057;-78
2022/01/18 01:18:38;;;;;;;;;;;;;;;;;;2108535;28;964;-78
2022/01/18 01:33:29;;;;;;;;;;;;;;;;;;2108491;28;914;-78
2022/01/18 16:31:10;;;;;;;;;;;;;;;;;;2117720;27;1522;-79
2022/01/18 16:32:12;;;;;;;;;;;;;;;;;;2107908;28;1506;-75
2022/01/18 16:37:18;;;;;;;;;;;;;;;;;;2075325;28;1640;-72
2022/01/18 16:38:19;;;;;;;;;;;;;;;;;;2080056;28;975;-73
2022/01/18 16:39:20;;;;;;;;;;;;;;;;;;2072358;28;1336;-73
2022/01/18 16:40:21;;;;;;;;;;;;;;;;;;2071918;28;924;-73
2022/01/18 16:41:23;;;;;;;;;;;;;;;;;;2071949;28;921;-74
2022/01/18 16:42:24;;;;;;;;;;;;;;;;;;2071785;28;932;-73
2022/01/18 16:43:25;;;;;;;;;;;;;;;;;;2071943;28;944;-73
2022/01/18 16:44:27;;;;;;;;;;;;;;;;;;2071704;28;1565;-73
2022/01/18 16:45:28;;;;;;;;;;;;;;;;;;2078703;28;1533;-74
2022/01/18 16:46:31;;;;;;;;;;;;;;;;;;2080035;27;1095;-73
2022/01/18 16:47:32;;;;;;;;;;;;;;;;;;2079988;28;997;-73
2022/01/18 16:48:33;;;;;;;;;;;;;;;;;;2079598;28;1042;-73
2022/01/18 16:49:35;;;;;;;;;;;;;;;;;;2079188;28;1052;-73
2022/01/18 16:50:37;;;;;;;;;;;;;;;;;;2079349;28;1065;-79
2022/01/18 16:51:40;;;;;;;;;;;;;;;;;;2079831;28;1522;-77
2022/01/18 16:52:43;;;;;;;;;;;;;;;;;;2080108;28;1066;-77
2022/01/18 16:53:45;;;;;;;;;;;;;;;;;;2079200;28;1212;-82
2022/01/18 16:54:46;;;;;;;;;;;;;;;;;;2071265;28;1548;-78
2022/01/18 16:55:48;;;;;;;;;;;;;;;;;;2072679;28;1644;-74
2022/01/18 16:56:49;;;;;;;;;;;;;;;;;;2072949;28;1902;-74
2022/01/18 16:57:50;;;;;;;;;;;;;;;;;;2079903;27;955;-73
2022/01/18 16:58:53;;;;;;;;;;;;;;;;;;2079949;27;946;-74
2022/01/18 16:59:55;;;;;;;;;;;;;;;;;;2079911;28;1053;-74
2022/01/18 17:00:55;;;;;;;;;;;;;;;;;;2079916;27;933;-74
2022/01/18 17:01:58;;;;;;;;;;;;;;;;;;2079848;28;936;-74
2022/01/18 17:02:59;;;;;;;;;;;;;;;;;;2079286;28;1169;-74
2022/01/18 17:04:03;;;;;;;;;;;;;;;;;;2071007;28;1090;-73
2022/01/18 17:05:04;;;;;;;;;;;;;;;;;;2071319;28;2542;-73
2022/01/18 17:06:05;;;;;;;;;;;;;;;;;;2077603;28;1486;-74
2022/01/18 17:07:07;;;;;;;;;;;;;;;;;;2079623;28;1562;-74
2022/01/18 17:08:18;;;;;;;;;;;;;;;;;;2079775;27;936;-73
2022/01/18 17:09:19;;;;;;;;;;;;;;;;;;2079138;27;1212;-74
2022/01/18 17:10:20;;;;;;;;;;;;;;;;;;2079272;28;1083;-74
2022/01/18 17:11:22;;;;;;;;;;;;;;;;;;2079844;27;1054;-74
2022/01/18 17:12:25;;;;;;;;;;;;;;;;;;2078330;27;1553;-73
2022/01/18 17:13:25;;;;;;;;;;;;;;;;;;2079817;28;976;-74
2022/01/18 17:14:27;;;;;;;;;;;;;;;;;;2079733;28;952;-73
2022/01/18 17:15:28;;;;;;;;;;;;;;;;;;2079763;27;934;-74
2022/01/18 17:16:31;;;;;;;;;;;;;;;;;;2079521;28;1022;-74
2022/01/18 17:17:31;;;;;;;;;;;;;;;;;;2079814;27;1011;-74
2022/01/18 17:18:33;;;;;;;;;;;;;;;;;;2075022;28;1529;-73
2022/01/18 17:19:35;;;;;;;;;;;;;;;;;;2078568;28;1518;-74
2022/01/18 17:20:36;;;;;;;;;;;;;;;;;;2071719;27;1687;-74
2022/01/18 17:21:38;;;;;;;;;;;;;;;;;;2066523;28;1479;-73
2022/01/18 17:22:39;;;;;;;;;;;;;;;;;;2071583;28;1486;-74
2022/01/18 17:23:44;;;;;;;;;;;;;;;;;;2070991;28;1388;-73
2022/01/18 17:24:46;;;;;;;;;;;;;;;;;;2071019;28;941;-74
2022/01/18 17:25:47;;;;;;;;;;;;;;;;;;2071744;28;1110;-73
2022/01/18 17:26:49;;;;;;;;;;;;;;;;;;2071678;28;956;-73
2022/01/18 17:27:51;;;;;;;;;;;;;;;;;;2071659;28;927;-74
2022/01/18 17:28:53;;;;;;;;;;;;;;;;;;2071603;28;1164;-75
2022/01/18 17:29:54;;;;;;;;;;;;;;;;;;2071566;28;951;-74
2022/01/18 17:30:56;;;;;;;;;;;;;;;;;;2071588;28;960;-74
2022/01/18 17:31:58;;;;;;;;;;;;;;;;;;2070923;28;1246;-74
2022/01/18 17:32:59;;;;;;;;;;;;;;;;;;2071177;28;960;-74
2022/01/18 17:34:01;;;;;;;;;;;;;;;;;;2071432;28;987;-73
2022/01/18 17:35:03;;;;;;;;;;;;;;;;;;2071601;28;1055;-73
2022/01/18 17:36:04;;;;;;;;;;;;;;;;;;2071500;28;1125;-74
2022/01/18 17:37:06;;;;;;;;;;;;;;;;;;2071378;28;1907;-74
2022/01/18 17:38:08;;;;;;;;;;;;;;;;;;2071537;28;1026;-73
2022/01/18 17:39:11;;;;;;;;;;;;;;;;;;2071658;28;958;-73
2022/01/18 17:40:13;;;;;;;;;;;;;;;;;;2071557;28;1124;-74
2022/01/18 17:41:17;;;;;;;;;;;;;;;;;;2071609;28;1125;-74
2022/01/18 17:42:19;;;;;;;;;;;;;;;;;;2071610;28;867;-73
2022/01/18 17:43:21;;;;;;;;;;;;;;;;;;2071586;28;933;-74
2022/01/18 17:44:22;;;;;;;;;;;;;;;;;;2071540;28;924;-74
2022/01/18 17:45:24;;;;;;;;;;;;;;;;;;2071483;28;1287;-74
2022/01/18 17:46:25;;;;;;;;;;;;;;;;;;2071554;28;917;-74
2022/01/18 17:47:27;;;;;;;;;;;;;;;;;;2071497;28;953;-73
2022/01/18 17:48:29;;;;;;;;;;;;;;;;;;2066885;28;1050;-74
2022/01/18 17:49:31;;;;;;;;;;;;;;;;;;2066155;28;931;-74
2022/01/18 17:50:32;;;;;;;;;;;;;;;;;;2066110;28;1083;-74
2022/01/18 17:51:34;;;;;;;;;;;;;;;;;;2066167;28;1052;-74
2022/01/18 17:52:35;;;;;;;;;;;;;;;;;;2065914;28;968;-74
2022/01/18 17:53:37;;;;;;;;;;;;;;;;;;2066214;28;944;-74
2022/01/18 17:54:40;;;;;;;;;;;;;;;;;;2066171;28;963;-74
2022/01/18 17:55:42;;;;;;;;;;;;;;;;;;2066139;28;1070;-74
2022/01/18 17:56:43;;;;;;;;;;;;;;;;;;2066094;28;1078;-73
2022/01/18 17:57:44;;;;;;;;;;;;;;;;;;2066027;28;1902;-73
2022/01/18 17:58:46;;;;;;;;;;;;;;;;;;2066091;28;1047;-73
2022/01/18 17:59:47;;;;;;;;;;;;;;;;;;2066106;28;944;-74
2022/01/18 18:00:49;;;;;;;;;;;;;;;;;;2066057;28;961;-74
2022/01/18 18:01:52;;;;;;;;;;;;;;;;;;2066095;28;1118;-73
2022/01/18 18:02:53;;;;;;;;;;;;;;;;;;2065914;28;1114;-74
2022/01/18 18:03:56;;;;;;;;;;;;;;;;;;2065519;28;953;-74
2022/01/18 18:04:56;;;;;;;;;;;;;;;;;;2065471;28;967;-74
2022/01/18 18:05:58;;;;;;;;;;;;;;;;;;2065412;28;997;-74
2022/01/18 18:06:59;;;;;;;;;;;;;;;;;;2065436;28;1143;-73
2022/01/18 18:08:01;;;;;;;;;;;;;;;;;;2066054;28;1094;-74
2022/01/18 18:09:04;;;;;;;;;;;;;;;;;;2065930;28;966;-73
2022/01/18 18:10:07;;;;;;;;;;;;;;;;;;2065996;28;1032;-74
2022/01/18 18:11:09;;;;;;;;;;;;;;;;;;2066012;28;1059;-74
2022/01/18 18:12:09;;;;;;;;;;;;;;;;;;2065371;28;940;-73
2022/01/18 18:13:11;;;;;;;;;;;;;;;;;;2057446;28;933;-74
2022/01/18 18:14:12;;;;;;;;;;;;;;;;;;2065342;28;967;-74
2022/01/18 18:15:19;;;;;;;;;;;;;;;;;;2066060;28;1010;-74
2022/01/18 18:16:21;;;;;;;;;;;;;;;;;;2066063;28;1105;-74
2022/01/18 18:17:23;;;;;;;;;;;;;;;;;;2065971;28;1902;-74
2022/01/18 18:18:24;;;;;;;;;;;;;;;;;;2065977;28;1075;-75
2022/01/18 18:19:26;;;;;;;;;;;;;;;;;;2065903;28;1086;-73
2022/01/18 18:20:29;;;;;;;;;;;;;;;;;;2065994;28;986;-73
2022/01/18 18:21:31;;;;;;;;;;;;;;;;;;2066024;28;999;-73
2022/01/18 18:22:31;;;;;;;;;;;;;;;;;;2065878;28;964;-74
2022/01/18 18:23:33;;;;;;;;;;;;;;;;;;2065291;28;1095;-74
2022/01/18 18:24:35;;;;;;;;;;;;;;;;;;2065320;28;1059;-74
2022/01/18 18:25:39;;;;;;;;;;;;;;;;;;2065465;28;1079;-74
2022/01/18 18:26:41;;;;;;;;;;;;;;;;;;2057508;28;1024;-73
2022/01/18 18:27:41;;;;;;;;;;;;;;;;;;2065384;28;975;-74
2022/01/18 18:28:43;;;;;;;;;;;;;;;;;;2065878;28;1038;-74
2022/01/18 18:29:43;;;;;;;;;;;;;;;;;;2065887;28;1074;-73
2022/01/18 18:30:48;;;;;;;;;;;;;;;;;;2065290;28;987;-74
2022/01/18 18:31:50;;;;;;;;;;;;;;;;;;2065222;28;963;-74
2022/01/18 18:32:52;;;;;;;;;;;;;;;;;;2065189;28;1123;-73
2022/01/18 18:33:53;;;;;;;;;;;;;;;;;;2065367;28;964;-74
2022/01/18 18:34:55;;;;;;;;;;;;;;;;;;2065817;28;931;-74
2022/01/18 18:35:56;;;;;;;;;;;;;;;;;;2065956;28;1110;-74
2022/01/18 18:36:58;;;;;;;;;;;;;;;;;;2065704;28;1210;-74
2022/01/18 18:38:00;;;;;;;;;;;;;;;;;;2065171;28;1992;-74
2022/01/18 18:39:11;;;;;;;;;;;;;;;;;;2065221;28;1326;-74
2022/01/18 18:40:17;;;;;;;;;;;;;;;;;;2065088;28;1146;-74
2022/01/18 18:41:29;;;;;;;;;;;;;;;;;;2064934;28;936;-73
2022/01/18 18:42:49;;;;;;;;;;;;;;;;;;2064776;28;1025;-74
2022/01/18 18:44:08;;;;;;;;;;;;;;;;;;2065529;28;944;-73
2022/01/18 18:45:08;;;;;;;;;;;;;;;;;;2065430;28;950;-73
2022/01/18 18:46:10;;;;;;;;;;;;;;;;;;2065505;28;1286;-73
2022/01/18 18:47:12;;;;;;;;;;;;;;;;;;2065439;28;955;-74
2022/01/18 18:48:14;;;;;;;;;;;;;;;;;;2065594;28;945;-73
2022/01/18 18:49:14;;;;;;;;;;;;;;;;;;2065467;28;1048;-73
2022/01/18 18:50:16;;;;;;;;;;;;;;;;;;2065591;28;962;-73
2022/01/18 18:51:18;;;;;;;;;;;;;;;;;;2065364;28;932;-73
2022/01/18 18:52:21;;;;;;;;;;;;;;;;;;2065516;28;1036;-73
2022/01/18 18:53:21;;;;;;;;;;;;;;;;;;2065511;28;958;-73
2022/01/18 18:54:23;;;;;;;;;;;;;;;;;;2065441;28;929;-73
2022/01/18 18:55:24;;;;;;;;;;;;;;;;;;2065548;28;1113;-74
2022/01/18 18:56:29;;;;;;;;;;;;;;;;;;2065620;28;1090;-74
2022/01/18 18:57:42;;;;;;;;;;;;;;;;;;2065393;28;1965;-74
2022/01/18 18:59:03;;;;;;;;;;;;;;;;;;2065584;28;1067;-74
2022/01/18 19:00:20;;;;;;;;;;;;;;;;;;2064360;28;1590;-73
2022/01/18 19:01:28;;;;;;;;;;;;;;;;;;2065430;28;978;-74
2022/01/18 19:02:48;;;;;;;;;;;;;;;;;;2065479;28;983;-74
2022/01/18 19:03:49;;;;;;;;;;;;;;;;;;2065399;28;945;-73
2022/01/18 19:04:50;;;;;;;;;;;;;;;;;;2065198;28;916;-74
2022/01/18 19:05:52;;;;;;;;;;;;;;;;;;2065422;28;1098;-74
2022/01/18 19:06:54;;;;;;;;;;;;;;;;;;2065407;28;1023;-74
2022/01/18 19:07:55;;;;;;;;;;;;;;;;;;2065398;28;980;-73
2022/01/18 19:08:58;;;;;;;;;;;;;;;;;;2065313;28;1086;-74
2022/01/18 19:10:00;;;;;;;;;;;;;;;;;;2065328;28;1090;-74
2022/01/18 19:11:02;;;;;;;;;;;;;;;;;;2065531;28;964;-74
2022/01/18 19:12:06;;;;;;;;;;;;;;;;;;2065399;28;1062;-74
2022/01/18 19:13:07;;;;;;;;;;;;;;;;;;2065419;28;1077;-74
2022/01/18 19:14:08;;;;;;;;;;;;;;;;;;2065415;28;1062;-74
2022/01/18 19:15:12;;;;;;;;;;;;;;;;;;2065284;28;1084;-74
2022/01/18 19:16:13;;;;;;;;;;;;;;;;;;2065386;28;1050;-74
2022/01/18 19:17:14;;;;;;;;;;;;;;;;;;2065329;28;949;-74
2022/01/18 19:18:18;;;;;;;;;;;;;;;;;;2065259;28;1990;-74
2022/01/18 19:19:18;;;;;;;;;;;;;;;;;;2065423;28;1067;-74
2022/01/18 19:20:21;;;;;;;;;;;;;;;;;;2065284;28;972;-74
2022/01/18 19:21:25;;;;;;;;;;;;;;;;;;2064636;28;1166;-74
2022/01/18 19:22:26;;;;;;;;;;;;;;;;;;2064679;28;1047;-74
2022/01/18 19:23:29;;;;;;;;;;;;;;;;;;2065348;28;1059;-74
2022/01/18 19:24:31;;;;;;;;;;;;;;;;;;2065368;28;972;-74
2022/01/18 19:25:36;;;;;;;;;;;;;;;;;;2065335;28;943;-74
2022/01/18 19:26:37;;;;;;;;;;;;;;;;;;2065231;28;975;-74
2022/01/18 19:27:41;;;;;;;;;;;;;;;;;;2064423;28;1094;-74
2022/01/18 19:28:42;;;;;;;;;;;;;;;;;;2064601;28;929;-74
2022/01/18 19:29:44;;;;;;;;;;;;;;;;;;2065264;28;949;-74
2022/01/18 19:30:46;;;;;;;;;;;;;;;;;;2065243;28;916;-74
2022/01/18 19:31:47;;;;;;;;;;;;;;;;;;2065329;28;953;-74
2022/01/18 19:32:49;;;;;;;;;;;;;;;;;;2065157;28;911;-74
2022/01/18 19:33:51;;;;;;;;;;;;;;;;;;2065299;28;1058;-74
2022/01/18 19:34:51;;;;;;;;;;;;;;;;;;2065260;28;933;-74
2022/01/18 19:35:53;;;;;;;;;;;;;;;;;;2065258;28;1085;-74
2022/01/18 19:36:55;;;;;;;;;;;;;;;;;;2065005;28;1336;-73
2022/01/18 19:37:57;;;;;;;;;;;;;;;;;;2065111;28;1910;-74
2022/01/18 19:38:57;;;;;;;;;;;;;;;;;;2065247;28;956;-74
2022/01/18 19:39:59;;;;;;;;;;;;;;;;;;2065238;28;958;-73
2022/01/18 19:41:00;;;;;;;;;;;;;;;;;;2064538;28;1139;-73
2022/01/18 19:42:02;;;;;;;;;;;;;;;;;;2064658;28;991;-73
2022/01/18 19:43:05;;;;;;;;;;;;;;;;;;2065173;28;1018;-73
2022/01/18 19:44:06;;;;;;;;;;;;;;;;;;2064513;28;1200;-74
2022/01/18 19:45:09;;;;;;;;;;;;;;;;;;2064521;28;1086;-74
2022/01/18 19:46:10;;;;;;;;;;;;;;;;;;2064471;28;1307;-74
2022/01/18 19:47:11;;;;;;;;;;;;;;;;;;2064419;28;1134;-74
2022/01/18 19:48:15;;;;;;;;;;;;;;;;;;2064552;28;940;-75
2022/01/18 19:49:15;;;;;;;;;;;;;;;;;;2064537;28;943;-74
2022/01/18 19:50:18;;;;;;;;;;;;;;;;;;2064604;28;949;-73
2022/01/18 19:51:20;;;;;;;;;;;;;;;;;;2065130;28;935;-73
2022/01/18 19:52:20;;;;;;;;;;;;;;;;;;2065125;28;1057;-74
2022/01/18 19:53:22;;;;;;;;;;;;;;;;;;2065056;28;928;-74
2022/01/18 19:54:23;;;;;;;;;;;;;;;;;;2065107;28;872;-74
2022/01/18 19:55:26;;;;;;;;;;;;;;;;;;2065064;28;1067;-73
2022/01/18 19:56:28;;;;;;;;;;;;;;;;;;2065077;28;1045;-73
2022/01/18 19:57:28;;;;;;;;;;;;;;;;;;2064980;28;1046;-73
2022/01/18 19:58:31;;;;;;;;;;;;;;;;;;2064816;28;1983;-73
2022/01/18 19:59:32;;;;;;;;;;;;;;;;;;2065080;28;988;-73
2022/01/18 20:00:33;;;;;;;;;;;;;;;;;;2065191;28;1143;-73
2022/01/18 20:01:35;;;;;;;;;;;;;;;;;;2065239;28;1015;-74
2022/01/18 20:02:36;;;;;;;;;;;;;;;;;;2065104;28;904;-73
2022/01/18 20:03:41;;;;;;;;;;;;;;;;;;2065126;28;948;-73
2022/01/18 20:04:42;;;;;;;;;;;;;;;;;;2064421;28;948;-74
2022/01/18 20:05:44;;;;;;;;;;;;;;;;;;2064419;28;924;-73
2022/01/18 20:06:46;;;;;;;;;;;;;;;;;;2064944;28;918;-73
2022/01/18 20:07:48;;;;;;;;;;;;;;;;;;2065122;28;1008;-74
2022/01/18 20:08:49;;;;;;;;;;;;;;;;;;2065055;28;1067;-74
2022/01/18 20:09:51;;;;;;;;;;;;;;;;;;2065002;28;1053;-73
2022/01/18 20:10:54;;;;;;;;;;;;;;;;;;2064964;28;980;-74
2022/01/18 20:11:55;;;;;;;;;;;;;;;;;;2064751;28;1031;-73
2022/01/18 20:12:57;;;;;;;;;;;;;;;;;;2064934;28;1039;-74
2022/01/18 20:13:58;;;;;;;;;;;;;;;;;;2065099;28;955;-73
2022/01/18 20:15:00;;;;;;;;;;;;;;;;;;2065036;28;931;-73
2022/01/18 20:16:02;;;;;;;;;;;;;;;;;;2064972;28;943;-73
2022/01/18 20:17:07;;;;;;;;;;;;;;;;;;2065088;28;919;-73
2022/01/18 20:18:08;;;;;;;;;;;;;;;;;;2064923;28;1907;-74
2022/01/18 20:19:09;;;;;;;;;;;;;;;;;;2064937;28;948;-74
2022/01/18 20:20:12;;;;;;;;;;;;;;;;;;2064996;28;929;-74
2022/01/18 20:21:13;;;;;;;;;;;;;;;;;;2064842;28;925;-74
2022/01/18 20:22:14;;;;;;;;;;;;;;;;;;2065048;28;956;-74
2022/01/18 20:23:16;;;;;;;;;;;;;;;;;;2064949;28;1121;-73
2022/01/18 20:24:17;;;;;;;;;;;;;;;;;;2064963;28;1159;-74
2022/01/18 20:25:18;;;;;;;;;;;;;;;;;;2064872;28;1016;-74
2022/01/18 20:26:22;;;;;;;;;;;;;;;;;;2064303;28;1217;-74
2022/01/18 20:27:33;;;;;;;;;;;;;;;;;;2064319;28;1145;-73
2022/01/18 20:28:35;;;;;;;;;;;;;;;;;;2064949;28;1094;-74
2022/01/18 20:29:38;;;;;;;;;;;;;;;;;;2064924;28;1054;-74
2022/01/18 20:30:39;;;;;;;;;;;;;;;;;;2064925;28;946;-74
2022/01/18 20:31:41;;;;;;;;;;;;;;;;;;2064791;28;987;-73
2022/01/18 20:32:45;;;;;;;;;;;;;;;;;;2064942;28;971;-74
2022/01/18 20:33:47;;;;;;;;;;;;;;;;;;2064131;28;1344;-74
2022/01/18 20:34:49;;;;;;;;;;;;;;;;;;2064294;28;1013;-73
2022/01/18 20:35:50;;;;;;;;;;;;;;;;;;2064246;28;1155;-74
2022/01/18 20:36:51;;;;;;;;;;;;;;;;;;2064239;28;1360;-74
2022/01/18 20:37:53;;;;;;;;;;;;;;;;;;2064262;28;1078;-74
2022/01/18 20:38:54;;;;;;;;;;;;;;;;;;2064324;28;1899;-73
2022/01/18 20:39:56;;;;;;;;;;;;;;;;;;2064798;28;948;-73
2022/01/18 20:40:59;;;;;;;;;;;;;;;;;;2065026;28;1093;-74
2022/01/18 20:43:39;;;;;;;;;;;;;;;;;;2064181;28;1173;-73
2022/01/18 20:44:41;;;;;;;;;;;;;;;;;;2058627;28;1207;-73
2022/01/18 20:45:44;;;;;;;;;;;;;;;;;;2063989;28;1326;-74
2022/01/18 20:46:45;;;;;;;;;;;;;;;;;;2064157;28;1520;-74
2022/01/18 20:47:46;;;;;;;;;;;;;;;;;;2056114;28;1155;-74
2022/01/18 20:48:48;;;;;;;;;;;;;;;;;;2064249;28;971;-74
2022/01/18 20:49:50;;;;;;;;;;;;;;;;;;2064828;28;1042;-73
2022/01/18 20:50:52;;;;;;;;;;;;;;;;;;2065607;28;956;-73
2022/01/18 20:51:53;;;;;;;;;;;;;;;;;;2064817;28;1048;-73
2022/01/18 20:52:54;;;;;;;;;;;;;;;;;;2064788;28;995;-74
2022/01/18 20:53:56;;;;;;;;;;;;;;;;;;2064807;28;931;-74
2022/01/18 20:54:56;;;;;;;;;;;;;;;;;;2064807;28;1086;-74
2022/01/18 20:56:00;;;;;;;;;;;;;;;;;;2064843;28;1074;-74
2022/01/18 20:57:02;;;;;;;;;;;;;;;;;;2064887;28;1062;-74
2022/01/18 20:58:03;;;;;;;;;;;;;;;;;;2064739;28;1038;-74
2022/01/18 20:59:05;;;;;;;;;;;;;;;;;;2064515;28;1969;-74
2022/01/18 21:00:08;;;;;;;;;;;;;;;;;;2064756;28;1012;-73
2022/01/18 21:01:13;;;;;;;;;;;;;;;;;;2064102;28;1081;-74
2022/01/18 21:02:14;;;;;;;;;;;;;;;;;;2064226;28;937;-74
2022/01/18 21:03:16;;;;;;;;;;;;;;;;;;2064812;28;940;-74
2022/01/18 21:04:20;;;;;;;;;;;;;;;;;;2064776;28;1038;-73
2022/01/18 21:05:21;;;;;;;;;;;;;;;;;;2064790;28;960;-74
2022/01/18 21:06:23;;;;;;;;;;;;;;;;;;2064701;28;1110;-74
2022/01/18 21:07:24;;;;;;;;;;;;;;;;;;2064736;28;1145;-74
2022/01/18 21:08:25;;;;;;;;;;;;;;;;;;2064704;28;962;-74
2022/01/18 21:09:27;;;;;;;;;;;;;;;;;;2064063;28;1152;-74
2022/01/18 21:10:29;;;;;;;;;;;;;;;;;;2064055;28;953;-74
2022/01/18 21:11:31;;;;;;;;;;;;;;;;;;2064847;28;941;-73
2022/01/18 21:12:32;;;;;;;;;;;;;;;;;;2064663;28;1062;-73
2022/01/18 21:13:33;;;;;;;;;;;;;;;;;;2064731;28;928;-74
2022/01/18 21:14:43;;;;;;;;;;;;;;;;;;2064181;28;915;-74
2022/01/18 21:15:53;;;;;;;;;;;;;;;;;;2064798;28;1065;-74
2022/01/18 21:16:55;;;;;;;;;;;;;;;;;;2064602;28;1090;-73
2022/01/18 21:17:56;;;;;;;;;;;;;;;;;;2064677;28;1004;-74
2022/01/18 21:18:57;;;;;;;;;;;;;;;;;;2064596;28;1971;-74
2022/01/18 21:19:59;;;;;;;;;;;;;;;;;;2064822;28;942;-74
2022/01/18 21:21:00;;;;;;;;;;;;;;;;;;2064626;28;872;-74
2022/01/18 21:22:01;;;;;;;;;;;;;;;;;;2064755;28;943;-74
2022/01/18 21:23:03;;;;;;;;;;;;;;;;;;2064597;28;944;-74
2022/01/18 21:24:06;;;;;;;;;;;;;;;;;;2066029;28;978;-74
2022/01/18 21:25:08;;;;;;;;;;;;;;;;;;2065974;28;1039;-74
2022/01/18 21:26:10;;;;;;;;;;;;;;;;;;2066094;28;1051;-74
2022/01/18 21:27:11;;;;;;;;;;;;;;;;;;2065963;28;886;-74
2022/01/18 21:28:12;;;;;;;;;;;;;;;;;;2066055;28;965;-74
2022/01/18 21:29:14;;;;;;;;;;;;;;;;;;2066096;28;930;-74
2022/01/18 21:30:16;;;;;;;;;;;;;;;;;;2066008;28;971;-74
2022/01/18 21:31:18;;;;;;;;;;;;;;;;;;2066009;28;1016;-74
2022/01/18 21:32:19;;;;;;;;;;;;;;;;;;2066022;28;1117;-74
2022/01/18 21:33:20;;;;;;;;;;;;;;;;;;2065945;28;1185;-74
2022/01/18 21:34:22;;;;;;;;;;;;;;;;;;2066052;28;972;-74
2022/01/18 21:35:24;;;;;;;;;;;;;;;;;;2066040;28;1055;-74
2022/01/18 21:36:25;;;;;;;;;;;;;;;;;;2065222;28;1278;-74
2022/01/18 21:37:26;;;;;;;;;;;;;;;;;;2065368;28;1126;-74
2022/01/18 21:38:28;;;;;;;;;;;;;;;;;;2065974;28;1055;-74
2022/01/18 21:39:29;;;;;;;;;;;;;;;;;;2065973;28;1981;-74
2022/01/18 21:40:31;;;;;;;;;;;;;;;;;;2065970;28;983;-74
2022/01/18 21:41:31;;;;;;;;;;;;;;;;;;2066043;28;953;-74
2022/01/18 21:42:33;;;;;;;;;;;;;;;;;;2065971;28;1020;-74
2022/01/18 21:43:33;;;;;;;;;;;;;;;;;;2065955;28;1175;-74
2022/01/18 21:44:35;;;;;;;;;;;;;;;;;;2066000;28;1096;-74
2022/01/18 21:45:37;;;;;;;;;;;;;;;;;;2065925;28;1188;-74
2022/01/18 21:46:40;;;;;;;;;;;;;;;;;;2065825;28;1051;-74
2022/01/18 21:47:41;;;;;;;;;;;;;;;;;;2066025;28;1004;-74
2022/01/18 21:48:42;;;;;;;;;;;;;;;;;;2065932;28;861;-74
2022/01/18 21:49:44;;;;;;;;;;;;;;;;;;2066052;28;951;-74
2022/01/18 21:50:45;;;;;;;;;;;;;;;;;;2065965;28;948;-74
2022/01/18 21:51:47;;;;;;;;;;;;;;;;;;2065918;28;940;-74
2022/01/18 21:52:48;;;;;;;;;;;;;;;;;;2065857;28;916;-74
2022/01/18 21:53:49;;;;;;;;;;;;;;;;;;2065997;28;1141;-74
2022/01/18 21:54:51;;;;;;;;;;;;;;;;;;2065926;28;900;-74
2022/01/18 21:55:51;;;;;;;;;;;;;;;;;;2065928;28;947;-74
2022/01/18 21:56:53;;;;;;;;;;;;;;;;;;2065710;28;921;-74
2022/01/18 21:57:54;;;;;;;;;;;;;;;;;;2065799;28;979;-73
2022/01/18 21:58:55;;;;;;;;;;;;;;;;;;2065687;28;1902;-74
2022/01/18 21:59:57;;;;;;;;;;;;;;;;;;2065907;28;936;-74
2022/01/18 22:00:57;;;;;;;;;;;;;;;;;;2065899;28;951;-74
2022/01/18 22:02:00;;;;;;;;;;;;;;;;;;2065918;28;1036;-74
2022/01/18 22:03:02;;;;;;;;;;;;;;;;;;2065086;28;1141;-74
2022/01/18 22:04:04;;;;;;;;;;;;;;;;;;2065283;28;880;-74
2022/01/18 22:05:06;;;;;;;;;;;;;;;;;;2065633;28;1103;-74
2022/01/18 22:06:08;;;;;;;;;;;;;;;;;;2065842;28;954;-74
2022/01/18 22:07:11;;;;;;;;;;;;;;;;;;2065895;28;922;-74
2022/01/18 22:08:13;;;;;;;;;;;;;;;;;;2065704;28;1065;-74
2022/01/18 22:09:14;;;;;;;;;;;;;;;;;;2065716;28;956;-74
2022/01/18 22:10:16;;;;;;;;;;;;;;;;;;2066033;28;936;-74
2022/01/18 22:11:18;;;;;;;;;;;;;;;;;;2065745;28;1016;-74
2022/01/18 22:12:20;;;;;;;;;;;;;;;;;;2065932;28;1044;-74
2022/01/18 22:13:21;;;;;;;;;;;;;;;;;;2065079;28;1285;-74
2022/01/18 22:14:22;;;;;;;;;;;;;;;;;;2065340;28;955;-74
2022/01/18 22:15:23;;;;;;;;;;;;;;;;;;2065814;28;1110;-74
2022/01/18 22:16:24;;;;;;;;;;;;;;;;;;2065739;28;1056;-74
2022/01/18 22:17:26;;;;;;;;;;;;;;;;;;2065681;28;936;-74
2022/01/18 22:18:28;;;;;;;;;;;;;;;;;;2065721;28;1044;-74
2022/01/18 22:19:29;;;;;;;;;;;;;;;;;;2064932;28;1948;-74
2022/01/18 22:20:33;;;;;;;;;;;;;;;;;;2065045;28;1123;-74
2022/01/18 22:21:35;;;;;;;;;;;;;;;;;;2065682;28;1075;-74
2022/01/18 22:22:35;;;;;;;;;;;;;;;;;;2065817;28;1054;-74
2022/01/18 22:23:37;;;;;;;;;;;;;;;;;;2065726;28;956;-74
2022/01/18 22:24:37;;;;;;;;;;;;;;;;;;2065759;28;933;-74
2022/01/18 22:25:39;;;;;;;;;;;;;;;;;;2065027;28;1280;-74
2022/01/18 22:26:39;;;;;;;;;;;;;;;;;;2065098;28;1047;-74
2022/01/18 22:27:42;;;;;;;;;;;;;;;;;;2065687;28;976;-74
2022/01/18 22:28:43;;;;;;;;;;;;;;;;;;2065707;28;1020;-74
2022/01/18 22:29:44;;;;;;;;;;;;;;;;;;2065636;28;1085;-74
2022/01/18 22:30:46;;;;;;;;;;;;;;;;;;2065711;28;975;-74
2022/01/18 22:31:48;;;;;;;;;;;;;;;;;;2065626;28;1143;-74
2022/01/18 22:32:49;;;;;;;;;;;;;;;;;;2065560;28;1066;-74
2022/01/18 22:33:51;;;;;;;;;;;;;;;;;;2065631;28;1102;-74
2022/01/18 22:34:52;;;;;;;;;;;;;;;;;;2065730;28;924;-74
2022/01/18 22:35:53;;;;;;;;;;;;;;;;;;2065688;28;1063;-74